Terminal Aerodrome Forecast
Issued by NWS

Home | Current Version | Previous Version | Text Only | Print | Product List | Glossary On
Versions: 1 2 3 4 5 6 7 8 9 10 11 12 13 14 15 16 17 18 19 20 21 22 23 24 25 26 27 28 29 30 31 32 33 34
000
FTPA31 PHFO 022300
TAFOGG
TAF
PHOG 022327Z 0300/0324 06015G22KT P6SM SCT030 BKN050 WS010/06005KT
     FM030500 05007KT P6SM SCT030 BKN050
     FM032000 05016G26KT P6SM SCT030 BKN050
      AMD LTD TO WX VIS AND WIND 0309/0316=

USA.gov is the U.S. government's official web portal to all federal, state and local government web resources and services.